ZKDAY RPME-RPVH

Flight info

Callsign ZKDAY
Flight time N/A
Altitude 4000
Route KAWI1B BULAD W9A EVLIN
Aircraft C172/L-SFG/C

Departure

Time 2026-04-26 04:56
Airport Bancasi Airport (RPME)

Arrival

Time N/A
Airport Hilongos Airport (RPVH)
Time Latitude Longitude Altitude Speed Heading
2026-04-26 04:56 9.11999 125.33651 3263 ft 109 kts 333°
2026-04-26 04:56 9.12646 125.33263 3380 ft 108 kts 333°
2026-04-26 04:57 9.13292 125.32880 3496 ft 107 kts 333°
2026-04-26 04:57 9.13935 125.32493 3613 ft 107 kts 333°
2026-04-26 04:57 9.14575 125.32104 3730 ft 108 kts 333°
2026-04-26 04:57 9.15219 125.31715 3803 ft 111 kts 333°
2026-04-26 04:58 9.15898 125.31303 3836 ft 117 kts 333°
2026-04-26 04:58 9.16605 125.30870 3852 ft 121 kts 333°
2026-04-26 04:58 9.17333 125.30429 3860 ft 123 kts 333°
2026-04-26 04:58 9.18072 125.29976 3865 ft 125 kts 333°
2026-04-26 04:59 9.18824 125.29531 3869 ft 125 kts 333°
2026-04-26 04:59 9.19577 125.29080 3869 ft 127 kts 333°
2026-04-26 04:59 9.20322 125.28639 3931 ft 122 kts 333°
2026-04-26 04:59 9.21055 125.28213 3966 ft 121 kts 333°
2026-04-26 05:00 9.21781 125.27797 3985 ft 122 kts 333°
2026-04-26 05:00 9.22515 125.27366 3987 ft 122 kts 333°
2026-04-26 05:00 9.23252 125.26928 3991 ft 123 kts 334°
2026-04-26 05:00 9.23992 125.26495 3995 ft 123 kts 333°
2026-04-26 05:01 9.24730 125.26055 3994 ft 124 kts 333°
2026-04-26 05:01 9.25471 125.25605 3996 ft 124 kts 333°
2026-04-26 05:01 9.26216 125.25160 4001 ft 124 kts 334°
2026-04-26 05:01 9.26967 125.24716 3999 ft 125 kts 333°
2026-04-26 05:02 9.27716 125.24261 3993 ft 126 kts 333°
2026-04-26 05:02 9.28460 125.23804 3999 ft 127 kts 333°
2026-04-26 05:02 9.29215 125.23345 4002 ft 127 kts 334°
2026-04-26 05:02 9.29970 125.22866 4004 ft 128 kts 333°
2026-04-26 05:03 9.30731 125.22404 4002 ft 128 kts 333°
2026-04-26 05:03 9.31490 125.21929 3999 ft 128 kts 334°
2026-04-26 05:03 9.32248 125.21453 3998 ft 128 kts 332°
2026-04-26 05:03 9.33002 125.20977 3997 ft 128 kts 332°
2026-04-26 05:04 9.33753 125.20492 3995 ft 128 kts 333°
2026-04-26 05:04 9.34504 125.19996 3995 ft 129 kts 333°
2026-04-26 05:04 9.35250 125.19514 3996 ft 128 kts 333°
2026-04-26 05:04 9.36008 125.19035 3995 ft 128 kts 333°
2026-04-26 05:05 9.36761 125.18552 3994 ft 128 kts 333°
2026-04-26 05:05 9.37518 125.18076 3996 ft 128 kts 333°
2026-04-26 05:05 9.38280 125.17620 3995 ft 127 kts 333°
2026-04-26 05:05 9.39036 125.17157 3989 ft 127 kts 333°
2026-04-26 05:06 9.39780 125.16689 3982 ft 125 kts 333°
2026-04-26 05:06 9.40508 125.16214 3979 ft 124 kts 335°
2026-04-26 05:06 9.41226 125.15749 3982 ft 122 kts 332°
2026-04-26 05:06 9.41931 125.15278 3988 ft 122 kts 333°
2026-04-26 05:07 9.42628 125.14813 3994 ft 122 kts 333°
2026-04-26 05:07 9.43331 125.14334 3995 ft 122 kts 333°
2026-04-26 05:07 9.44036 125.13849 3993 ft 122 kts 331°
2026-04-26 05:07 9.44744 125.13381 3991 ft 121 kts 332°
2026-04-26 05:08 9.45446 125.12911 3991 ft 121 kts 334°
2026-04-26 05:08 9.46154 125.12445 3998 ft 122 kts 332°
2026-04-26 05:08 9.46876 125.11992 4007 ft 123 kts 333°
2026-04-26 05:08 9.47615 125.11540 4008 ft 125 kts 333°
2026-04-26 05:09 9.48353 125.11083 4005 ft 127 kts 332°
2026-04-26 05:09 9.49104 125.10609 4002 ft 128 kts 332°
2026-04-26 05:09 9.49863 125.10143 3999 ft 127 kts 333°
2026-04-26 05:09 9.50617 125.09674 3997 ft 128 kts 333°
2026-04-26 05:10 9.51368 125.09185 3996 ft 129 kts 333°
2026-04-26 05:10 9.52123 125.08694 3996 ft 129 kts 333°
2026-04-26 05:10 9.52877 125.08206 3994 ft 129 kts 333°
2026-04-26 05:10 9.53635 125.07725 3995 ft 128 kts 332°
2026-04-26 05:11 9.54386 125.07236 3998 ft 128 kts 334°
2026-04-26 05:11 9.55125 125.06760 3993 ft 127 kts 333°
2026-04-26 05:11 9.55864 125.06285 3983 ft 125 kts 333°
2026-04-26 05:11 9.56594 125.05819 3983 ft 123 kts 333°
2026-04-26 05:12 9.57322 125.05363 3988 ft 123 kts 333°
2026-04-26 05:12 9.58042 125.04887 3991 ft 124 kts 333°
2026-04-26 05:12 9.58764 125.04419 3991 ft 123 kts 332°
2026-04-26 05:12 9.59478 125.03947 3990 ft 122 kts 333°
2026-04-26 05:13 9.60187 125.03467 3991 ft 123 kts 333°
2026-04-26 05:13 9.60897 125.02977 3993 ft 124 kts 333°
2026-04-26 05:13 9.61604 125.02500 3995 ft 123 kts 332°
2026-04-26 05:13 9.62318 125.02026 3998 ft 123 kts 332°
2026-04-26 05:14 9.63031 125.01543 3997 ft 124 kts 333°
2026-04-26 05:14 9.63753 125.01066 3993 ft 124 kts 332°
2026-04-26 05:14 9.64482 125.00613 3997 ft 122 kts 333°
2026-04-26 05:14 9.65204 125.00154 3996 ft 123 kts 333°
2026-04-26 05:15 9.65929 124.99689 4003 ft 124 kts 333°
2026-04-26 05:15 9.66657 124.99210 4005 ft 125 kts 334°
2026-04-26 05:15 9.67391 124.98729 4003 ft 126 kts 332°
2026-04-26 05:15 9.68110 124.98247 4000 ft 126 kts 333°
2026-04-26 05:16 9.68842 124.97757 3996 ft 126 kts 333°
2026-04-26 05:16 9.69572 124.97267 3990 ft 126 kts 333°
2026-04-26 05:16 9.70294 124.96772 3984 ft 125 kts 333°
2026-04-26 05:16 9.71010 124.96287 3985 ft 123 kts 332°
2026-04-26 05:17 9.71720 124.95805 3991 ft 123 kts 335°
2026-04-26 05:17 9.72431 124.95325 3989 ft 123 kts 334°
2026-04-26 05:17 9.73147 124.94855 3994 ft 122 kts 333°
2026-04-26 05:17 9.73866 124.94391 3991 ft 123 kts 333°
2026-04-26 05:18 9.74571 124.93926 3993 ft 123 kts 333°
2026-04-26 05:18 9.75279 124.93442 3998 ft 123 kts 333°
2026-04-26 05:18 9.75990 124.92959 3997 ft 123 kts 332°
2026-04-26 05:18 9.76708 124.92490 3998 ft 123 kts 332°
2026-04-26 05:19 9.77421 124.92008 3995 ft 124 kts 333°
2026-04-26 05:19 9.78138 124.91524 3995 ft 124 kts 333°
2026-04-26 05:19 9.78857 124.91045 3993 ft 123 kts 334°
2026-04-26 05:19 9.79573 124.90566 3993 ft 123 kts 333°
2026-04-26 05:20 9.80277 124.90100 3994 ft 123 kts 333°
2026-04-26 05:20 9.80983 124.89611 3993 ft 123 kts 332°
2026-04-26 05:20 9.81697 124.89138 3993 ft 123 kts 334°
2026-04-26 05:20 9.82408 124.88660 3994 ft 122 kts 333°
2026-04-26 05:21 9.83122 124.88188 3993 ft 122 kts 333°
2026-04-26 05:21 9.83834 124.87710 3993 ft 123 kts 333°
2026-04-26 05:21 9.84545 124.87225 3994 ft 123 kts 332°
2026-04-26 05:21 9.85258 124.86747 3994 ft 123 kts 334°
2026-04-26 05:22 9.85966 124.86262 3996 ft 123 kts 333°
2026-04-26 05:22 9.86662 124.85780 3995 ft 123 kts 333°
2026-04-26 05:22 9.87370 124.85291 3995 ft 123 kts 333°
2026-04-26 05:22 9.88085 124.84813 3998 ft 123 kts 333°
2026-04-26 05:23 9.88806 124.84338 4006 ft 124 kts 332°
2026-04-26 05:23 9.89530 124.83852 4004 ft 125 kts 333°
2026-04-26 05:23 9.90262 124.83371 4002 ft 126 kts 333°
2026-04-26 05:23 9.91006 124.82900 4001 ft 126 kts 333°
2026-04-26 05:24 9.91749 124.82415 3999 ft 128 kts 333°
2026-04-26 05:24 9.92489 124.81922 3999 ft 128 kts 333°
2026-04-26 05:24 9.93245 124.81416 3868 ft 136 kts 334°
2026-04-26 05:24 9.94053 124.80890 3699 ft 138 kts 333°
2026-04-26 05:25 9.94861 124.80363 3527 ft 138 kts 333°
2026-04-26 05:25 9.95665 124.79833 3362 ft 138 kts 333°
2026-04-26 05:25 9.96476 124.79314 3203 ft 138 kts 335°
2026-04-26 05:25 9.97305 124.78829 3055 ft 137 kts 336°
2026-04-26 05:26 9.98132 124.78371 2961 ft 134 kts 338°
2026-04-26 05:26 9.98949 124.77919 2866 ft 133 kts 338°
2026-04-26 05:26 9.99752 124.77478 2771 ft 133 kts 338°
2026-04-26 05:26 10.00567 124.77039 2676 ft 133 kts 338°
2026-04-26 05:27 10.01387 124.76602 2582 ft 134 kts 338°
2026-04-26 05:27 10.02211 124.76163 2487 ft 134 kts 338°
2026-04-26 05:27 10.03037 124.75726 2388 ft 134 kts 338°
2026-04-26 05:27 10.03864 124.75291 2285 ft 134 kts 338°
2026-04-26 05:28 10.04688 124.74855 2181 ft 133 kts 338°
2026-04-26 05:28 10.05510 124.74420 2086 ft 133 kts 338°
2026-04-26 05:28 10.06310 124.73995 2037 ft 130 kts 338°
2026-04-26 05:28 10.07104 124.73567 2016 ft 128 kts 338°
2026-04-26 05:29 10.07885 124.73141 2013 ft 127 kts 338°
2026-04-26 05:29 10.08662 124.72719 2006 ft 126 kts 338°
2026-04-26 05:29 10.09438 124.72304 2000 ft 125 kts 339°
2026-04-26 05:29 10.10240 124.71980 2004 ft 123 kts 348°
2026-04-26 05:30 10.11063 124.71733 2012 ft 123 kts 352°
2026-04-26 05:30 10.11891 124.71515 2011 ft 123 kts 352°
2026-04-26 05:30 10.12726 124.71310 2012 ft 124 kts 353°
2026-04-26 05:30 10.13552 124.71108 1998 ft 123 kts 353°
2026-04-26 05:31 10.14385 124.70918 1982 ft 122 kts 353°
2026-04-26 05:31 10.15212 124.70734 1982 ft 121 kts 353°
2026-04-26 05:31 10.16036 124.70556 1999 ft 120 kts 356°
2026-04-26 05:31 10.16871 124.70456 1964 ft 122 kts 359°
2026-04-26 05:32 10.17717 124.70423 1912 ft 122 kts
2026-04-26 05:32 10.18570 124.70441 1847 ft 122 kts
2026-04-26 05:32 10.19418 124.70493 1798 ft 122 kts
2026-04-26 05:32 10.20229 124.70707 1760 ft 120 kts 24°
2026-04-26 05:33 10.20999 124.71005 1692 ft 119 kts 26°
2026-04-26 05:33 10.21753 124.71337 1641 ft 118 kts 27°
2026-04-26 05:33 10.22514 124.71681 1604 ft 121 kts 27°
2026-04-26 05:33 10.23279 124.72032 1555 ft 120 kts 28°
2026-04-26 05:34 10.24031 124.72391 1506 ft 119 kts 33°
2026-04-26 05:34 10.24679 124.72894 1438 ft 117 kts 44°
2026-04-26 05:34 10.25273 124.73466 1403 ft 119 kts 46°
2026-04-26 05:34 10.25859 124.74055 1338 ft 117 kts 48°
2026-04-26 05:35 10.26410 124.74599 1268 ft 106 kts 48°
2026-04-26 05:35 10.26909 124.75097 1230 ft 95 kts 47°
2026-04-26 05:35 10.27365 124.75569 1210 ft 92 kts 48°
2026-04-26 05:35 10.27818 124.76013 1189 ft 90 kts 48°
2026-04-26 05:36 10.28252 124.76474 1140 ft 91 kts 51°
2026-04-26 05:36 10.28678 124.76926 1070 ft 89 kts 46°
2026-04-26 05:36 10.29146 124.77330 1016 ft 87 kts 41°
2026-04-26 05:36 10.29617 124.77676 1049 ft 83 kts 38°
2026-04-26 05:37 10.30081 124.78019 993 ft 81 kts 39°
2026-04-26 05:37 10.30539 124.78327 974 ft 79 kts 39°
2026-04-26 05:37 10.30993 124.78620 941 ft 77 kts 36°
2026-04-26 05:37 10.31432 124.78925 902 ft 76 kts 38°
2026-04-26 05:38 10.31881 124.79214 912 ft 78 kts 35°
2026-04-26 05:38 10.32355 124.79538 926 ft 85 kts 38°
2026-04-26 05:38 10.32856 124.79879 930 ft 89 kts 37°
2026-04-26 05:38 10.33376 124.80239 913 ft 92 kts 37°
2026-04-26 05:39 10.33905 124.80598 897 ft 92 kts 37°
2026-04-26 05:39 10.34165 124.81130 871 ft 87 kts 99°
2026-04-26 05:39 10.33914 124.81651 869 ft 86 kts 140°
2026-04-26 05:39 10.33368 124.81885 888 ft 86 kts 162°
2026-04-26 05:40 10.32769 124.81995 886 ft 87 kts 173°
2026-04-26 05:40 10.32168 124.82016 881 ft 86 kts 187°
2026-04-26 05:40 10.31741 124.81634 899 ft 87 kts 239°
2026-04-26 05:40 10.31594 124.81052 904 ft 86 kts 263°
2026-04-26 05:41 10.31536 124.80435 911 ft 90 kts 268°
2026-04-26 05:41 10.31481 124.79797 922 ft 92 kts 268°
2026-04-26 05:41 10.31446 124.79136 926 ft 96 kts 267°
2026-04-26 05:41 10.31421 124.78462 894 ft 94 kts 280°
2026-04-26 05:42 10.31824 124.78058 876 ft 84 kts 349°
2026-04-26 05:42 10.32311 124.78176 877 ft 73 kts 49°
2026-04-26 05:42 10.32651 124.78554 899 ft 72 kts 55°
2026-04-26 05:42 10.32930 124.79006 961 ft 80 kts 82°
2026-04-26 05:43 10.32780 124.79572 976 ft 86 kts 104°
2026-04-26 05:43 10.32328 124.79944 968 ft 95 kts 169°
2026-04-26 05:43 10.31653 124.79919 916 ft 98 kts 183°
2026-04-26 05:43 10.30978 124.79851 941 ft 98 kts 184°
2026-04-26 05:44 10.30296 124.79754 909 ft 98 kts 185°
2026-04-26 05:44 10.29634 124.79666 879 ft 93 kts 186°
2026-04-26 05:44 10.29015 124.79585 887 ft 90 kts 185°
2026-04-26 05:44 10.28407 124.79496 863 ft 86 kts 186°
2026-04-26 05:45 10.27813 124.79408 882 ft 88 kts 186°
2026-04-26 05:45 10.27201 124.79292 858 ft 89 kts 188°
2026-04-26 05:45 10.26609 124.79216 840 ft 82 kts 186°
2026-04-26 05:45 10.26046 124.79143 885 ft 82 kts 185°
2026-04-26 05:46 10.25468 124.79042 884 ft 86 kts 186°
2026-04-26 05:46 10.24887 124.78949 859 ft 83 kts 187°
2026-04-26 05:46 10.24323 124.78856 882 ft 83 kts 186°
2026-04-26 05:46 10.23742 124.78768 886 ft 87 kts 183°
2026-04-26 05:47 10.23132 124.78658 928 ft 93 kts 186°
2026-04-26 05:47 10.22465 124.78545 952 ft 101 kts 185°
2026-04-26 05:47 10.21746 124.78416 974 ft 107 kts 185°
2026-04-26 05:47 10.21007 124.78258 978 ft 109 kts 187°
2026-04-26 05:48 10.20270 124.78124 917 ft 105 kts 186°
2026-04-26 05:48 10.19564 124.77993 917 ft 102 kts 186°
2026-04-26 05:48 10.18877 124.77864 906 ft 102 kts 186°
2026-04-26 05:48 10.18161 124.77727 924 ft 105 kts 186°
2026-04-26 05:49 10.17445 124.77596 914 ft 107 kts 186°
2026-04-26 05:49 10.16000 124.77320 891 ft 105 kts 186°
2026-04-26 05:49 10.15279 124.77181 900 ft 106 kts 186°
2026-04-26 05:50 10.14569 124.77127 822 ft 95 kts 153°
2026-04-26 05:50 10.14267 124.77579 823 ft 74 kts 98°
2026-04-26 05:50 10.14178 124.78085 868 ft 72 kts 84°
2026-04-26 05:50 10.14525 124.78357 879 ft 73 kts 11°
2026-04-26 05:51 10.15025 124.78362 884 ft 72 kts 12°
2026-04-26 05:51 10.15507 124.78476 888 ft 71 kts 25°
2026-04-26 05:51 10.15981 124.78651 902 ft 74 kts 26°
2026-04-26 05:51 10.16486 124.78788 887 ft 80 kts 10°
2026-04-26 05:52 10.17059 124.78718 829 ft 87 kts 356°
2026-04-26 05:52 10.17674 124.78567 609 ft 90 kts 346°
2026-04-26 05:52 10.18228 124.78413 421 ft 83 kts 352°
2026-04-26 05:52 10.18703 124.78295 357 ft 59 kts 345°
2026-04-26 05:53 10.19011 124.78212 339 ft 21 kts 342°
2026-04-26 05:53 10.19079 124.78185 338 ft 2 kts 204°
2026-04-26 05:53 10.19039 124.78196 337 ft 9 kts 172°
2026-04-26 05:53 10.18954 124.78222 339 ft 16 kts 163°
2026-04-26 05:54 10.18825 124.78257 338 ft 22 kts 164°
2026-04-26 05:54 10.18674 124.78297 346 ft 17 kts 165°
2026-04-26 05:54 10.18643 124.78276 342 ft 10 kts 296°
2026-04-26 05:54 10.18686 124.78195 340 ft 10 kts 335°
2026-04-26 05:55 10.18705 124.78177 340 ft 0 kts 250°
2026-04-26 05:55 10.18704 124.78174 340 ft 0 kts 247°